Latest Coastal Weather Observations for Hillarys Point Boat Harbour

IDW60701

Issued at 7:52 pm WST Saturday 6 February 2016 (issued every 10 minutes, with the page automatically refreshed every 10 minutes)

About coastal observations | Map of coastal stations | Coastal observations for WA | Marine services | Other Formats
Station Details ID: 009265 Name: HILLARYS BOAT HARBOUR NTC AWS Lat: -31.83 Lon: 115.74 Height: 0.0 m
Data from the previous 72 hours. | See also: Recent months for locations in Western Australia
Date/Time
WST
Temp

°C
Wind Pressure Rain
since 9am
mm
Weather Cloud Vis
km
Sea
Height
m
Swell
Dir
 
Speed
knots
Gust
knots
hPa Trend Height
m
Period
s
Dir
06/07:30pm 23.4 SSW 5 11 1013.9 - - - - - - - - -
06/07:00pm 23.4 SSW 5 11 1013.6 - - - - - - - - -
06/06:30pm 23.6 SSW 5 13 1013.4 - - - - - - - - -
06/06:00pm 23.8 SSW 6 12 1013.0 - - - - - - - - -
06/05:30pm 24.1 SSW 5 12 1012.9 - - - - - - - - -
06/05:00pm 24.2 SSW 5 12 1012.8 - - - - - - - - -
06/04:30pm 24.3 SSW 6 11 1012.8 - - - - - - - - -
06/04:00pm 24.0 SSW 8 16 1013.1 - - - - - - - - -
06/03:30pm 23.9 SSW 8 16 1013.4 - - - - - - - - -
06/03:00pm 23.9 SSW 8 15 1013.7 - - - - - - - - -
06/02:30pm 23.7 SSW 8 14 1013.8 - - - - - - - - -
06/02:00pm 23.6 SSW 8 15 1013.9 - - - - - - - - -
06/01:30pm 23.6 SSW 8 15 1014.0 - - - - - - - - -
06/01:00pm 23.5 SSW 8 15 1014.3 - - - - - - - - -
06/12:30pm 23.6 SSW 8 14 1014.5 - - - - - - - - -
06/12:00pm 24.0 SSW 6 11 1014.5 - - - - - - - - -
06/11:30am 24.1 SSW 5 8 1014.6 - - - - - - - - -
06/11:00am 24.0 SSW 4 7 1014.9 - - - - - - - - -
06/10:30am 24.1 SSW 4 7 1015.3 - - - - - - - - -
06/10:00am 24.0 SSW 4 9 1015.5 - - - - - - - - -
06/09:30am 23.6 SW 6 11 1015.2 - - - - - - - - -
06/09:00am 23.8 SW 4 7 1015.0 - - - - - - - - -
06/08:30am 24.6 SSW 1 3 1014.9 - - - - - - - - -
06/08:00am 23.8 SSE 3 6 1015.0 - - - - - - - - -
06/07:30am 23.1 SSE 3 5 1014.9 - - - - - - - - -
06/07:00am 22.4 SSE 3 7 1014.4 - - - - - - - - -
06/06:30am 22.3 S 2 6 1014.3 - - - - - - - - -
06/06:00am 21.8 SE 1 4 1013.8 - - - - - - - - -
06/05:30am 22.5 SSE 4 6 1013.5 - - - - - - - - -
06/05:00am 22.4 SSE 3 5 1013.3 - - - - - - - - -
06/04:30am 22.7 S 4 7 1013.1 - - - - - - - - -
06/04:00am 22.8 S 2 8 1012.9 - - - - - - - - -
06/03:30am 22.8 S 3 9 1012.9 - - - - - - - - -
06/03:00am 22.9 SSW 3 8 1012.7 - - - - - - - - -
06/02:30am 23.1 SSW 1 4 1012.6 - - - - - - - - -
06/02:00am 22.7 CALM 0 1 1012.6 - - - - - - - - -
06/01:30am 23.0 S 1 2 1012.7 - - - - - - - - -
06/01:00am 22.8 S 1 3 1012.7 - - - - - - - - -
06/12:30am 23.1 S 1 3 1012.9 - - - - - - - - -
06/12:00am 23.2 SSW 2 5 1013.3 - - - - - - - - -
 
Date/Time
WST
Temp

°C
Wind Pressure Rain
since 9am
mm
Weather Cloud Vis
km
Sea
Height
m
Swell
Dir
 
Speed
knots
Gust
knots
hPa Trend Height
m
Period
s
Dir
05/11:30pm 23.3 SSW 2 5 1013.5 - - - - - - - - -
05/11:00pm 23.4 SSW 3 8 1013.7 - - - - - - - - -
05/10:30pm 23.2 SSW 3 6 1013.8 - - - - - - - - -
05/10:00pm 23.5 SSW 3 5 1013.8 - - - - - - - - -
05/09:30pm 23.4 S 2 6 1013.8 - - - - - - - - -
05/09:00pm 23.6 SSW 2 6 1013.6 - - - - - - - - -
05/08:30pm 23.7 SSW 3 7 1013.3 - - - - - - - - -
05/08:00pm 23.5 S 3 8 1012.9 - - - - - - - - -
05/07:30pm 23.4 S 3 8 1012.8 - - - - - - - - -
05/07:00pm 23.7 SSW 4 9 1012.7 - - - - - - - - -
05/06:30pm 24.0 SSW 3 9 1012.6 - - - - - - - - -
05/06:00pm 24.4 SSW 4 9 1012.4 - - - - - - - - -
05/05:30pm 24.5 SSW 6 12 1012.3 - - - - - - - - -
05/05:00pm 24.9 SSW 3 8 1012.2 - - - - - - - - -
05/04:30pm 25.4 SSW 4 10 1012.2 - - - - - - - - -
05/04:00pm 25.7 SSW 4 9 1012.2 - - - - - - - - -
05/03:30pm 26.5 S 2 6 1012.3 - - - - - - - - -
05/03:00pm 25.3 SSW 6 11 1012.4 - - - - - - - - -
05/02:30pm 25.4 SSW 7 15 1012.6 - - - - - - - - -
05/02:00pm 25.2 SW 11 16 1012.7 - - - - - - - - -
05/01:30pm 26.3 WSW 9 11 1012.7 - - - - - - - - -
05/01:00pm 26.3 WSW 7 10 1012.7 - - - - - - - - -
05/12:30pm 26.1 WSW 7 10 1013.0 - - - - - - - - -
05/12:00pm 26.4 WSW 7 9 1013.4 - - - - - - - - -
05/11:30am 26.1 WSW 6 8 1013.6 - - - - - - - - -
05/11:00am 27.9 WSW 5 7 1013.9 - - - - - - - - -
05/10:30am 31.5 NNE 4 7 1014.2 - - - - - - - - -
05/10:00am 30.8 NNE 4 8 1014.3 - - - - - - - - -
05/09:30am 29.9 NE 5 9 1014.4 - - - - - - - - -
05/09:00am 29.0 NE 4 7 1014.4 - - - - - - - - -
05/08:30am 27.6 NE 5 9 1014.5 - - - - - - - - -
05/08:00am 26.3 NE 3 6 1014.6 - - - - - - - - -
05/07:30am 24.9 ENE 2 4 1014.8 - - - - - - - - -
05/07:00am 23.1 CALM 0 1 1014.6 - - - - - - - - -
05/06:30am 21.6 CALM 0 2 1014.5 - - - - - - - - -
05/06:00am 20.9 ESE 1 2 1014.1 - - - - - - - - -
05/05:30am 21.3 E 1 2 1013.8 - - - - - - - - -
05/05:00am 21.5 S 1 2 1013.4 - - - - - - - - -
05/04:30am 21.8 ENE 3 6 1013.0 - - - - - - - - -
05/04:00am 22.3 ENE 5 8 1012.9 - - - - - - - - -
05/03:30am 21.6 ENE 4 6 1013.0 - - - - - - - - -
05/03:00am 22.2 ENE 4 6 1013.1 - - - - - - - - -
05/02:30am 21.4 CALM 0 2 1013.5 - - - - - - - - -
05/02:00am 22.1 E 1 3 1013.6 - - - - - - - - -
05/01:30am 22.6 SSE 1 3 1013.8 - - - - - - - - -
05/01:00am 23.1 SSE 2 3 1014.0 - - - - - - - - -
05/12:30am 23.6 SSE 3 5 1014.3 - - - - - - - - -
05/12:00am 23.7 SSE 2 4 1014.5 - - - - - - - - -
 
Date/Time
WST
Temp

°C
Wind Pressure Rain
since 9am
mm
Weather Cloud Vis
km
Sea
Height
m
Swell
Dir
 
Speed
knots
Gust
knots
hPa Trend Height
m
Period
s
Dir
04/11:30pm 24.4 S 2 5 1014.6 - - - - - - - - -
04/11:00pm 24.5 S 2 7 1014.8 - - - - - - - - -
04/10:30pm 24.6 S 2 5 1015.1 - - - - - - - - -
04/10:00pm 24.1 S 2 4 1015.2 - - - - - - - - -
04/09:30pm 23.4 S 2 5 1015.2 - - - - - - - - -
04/09:00pm 23.8 S 3 6 1015.1 - - - - - - - - -
04/08:30pm 24.3 S 3 7 1015.1 - - - - - - - - -
04/08:00pm 24.3 S 3 9 1014.9 - - - - - - - - -
04/07:30pm 24.5 S 4 10 1014.6 - - - - - - - - -
04/07:00pm 24.8 S 4 10 1014.5 - - - - - - - - -
04/06:30pm 24.9 S 4 10 1014.2 - - - - - - - - -
04/06:00pm 25.3 S 5 13 1014.0 - - - - - - - - -
04/05:30pm 25.5 S 4 11 1013.9 - - - - - - - - -
04/05:00pm 26.0 S 3 7 1013.8 - - - - - - - - -
04/04:30pm 26.3 S 3 7 1013.9 - - - - - - - - -
04/04:00pm 26.2 SSW 4 10 1013.9 - - - - - - - - -
04/03:30pm 26.1 SSW 6 12 1013.8 - - - - - - - - -
04/03:00pm 26.2 SW 7 11 1014.1 - - - - - - - - -
04/02:30pm 26.4 SW 9 12 1014.5 - - - - - - - - -
04/02:00pm 26.4 SW 9 14 1015.0 - - - - - - - - -
04/01:30pm 26.7 SW 9 13 1015.5 - - - - - - - - -
04/01:00pm 30.6 S 3 6 1015.9 - - - - - - - - -
04/12:30pm 30.4 ENE 5 13 1016.3 - - - - - - - - -
04/12:00pm 30.3 ENE 5 13 1016.7 - - - - - - - - -
04/11:30am 29.6 NE 6 11 1017.2 - - - - - - - - -
04/11:00am 28.6 NE 6 13 1017.5 - - - - - - - - -
04/10:30am 28.0 ENE 8 14 1017.8 - - - - - - - - -
04/10:00am 27.3 ENE 7 11 1018.1 - - - - - - - - -
04/09:30am 26.0 ENE 8 12 1018.3 - - - - - - - - -
04/09:00am 24.9 ENE 10 16 1018.6 - - - - - - - - -
04/08:30am 23.9 ENE 10 18 1018.7 - - - - - - - - -
04/08:00am 22.7 ENE 9 16 1018.7 - - - - - - - - -
04/07:30am 21.3 ENE 10 14 1018.5 - - - - - - - - -
04/07:00am 20.6 ENE 9 15 1018.4 - - - - - - - - -
04/06:30am 20.0 ENE 8 14 1018.4 - - - - - - - - -
04/06:00am 20.1 E 7 12 1018.1 - - - - - - - - -
04/05:30am 20.6 E 7 13 1018.0 - - - - - - - - -
04/05:00am 20.9 E 6 12 1017.7 - - - - - - - - -
04/04:30am 21.3 E 7 11 1017.3 - - - - - - - - -
04/04:00am 21.4 ENE 6 10 1017.1 - - - - - - - - -
04/03:30am 22.0 E 7 11 1017.3 - - - - - - - - -
04/03:00am 21.8 E 5 11 1017.3 - - - - - - - - -
04/02:30am 21.5 E 5 8 1017.2 - - - - - - - - -
04/02:00am 21.3 E 3 7 1017.2 - - - - - - - - -
04/01:30am 21.0 E 3 5 1017.1 - - - - - - - - -
04/01:00am 21.2 E 3 6 1017.3 - - - - - - - - -
04/12:30am 21.0 E 2 4 1017.4 - - - - - - - - -
04/12:00am 20.6 E 1 4 1017.7 - - - - - - - - -
 
Date/Time
WST
Temp

°C
Wind Pressure Rain
since 9am
mm
Weather Cloud Vis
km
Sea
Height
m
Swell
Dir
 
Speed
knots
Gust
knots
hPa Trend Height
m
Period
s
Dir
03/11:30pm 20.7 SE 1 2 1017.8 - - - - - - - - -
03/11:00pm 21.5 SSE 3 5 1017.9 - - - - - - - - -
03/10:30pm 21.4 SSE 2 5 1018.1 - - - - - - - - -
03/10:00pm 22.1 SSE 3 5 1018.3 - - - - - - - - -
03/09:30pm 22.1 S 2 5 1018.4 - - - - - - - - -
03/09:00pm 22.3 S 3 8 1018.4 - - - - - - - - -
03/08:30pm 22.5 S 5 13 1018.4 - - - - - - - - -
03/08:00pm 22.3 S 4 10 1018.0 - - - - - - - - -

Other Formats:

Comma delimited format used in spreadsheet applications
http://www.bom.gov.au/fwo/IDW60701/IDW60701.95605.axf

JavaScript Object Notation format (JSON) in row-major order
http://www.bom.gov.au/fwo/IDW60701/IDW60701.95605.json